Terminal Aerodrome Forecast
Issued by NWS Flagstaff, AZ

Home | Current Version | Previous Version | Text Only | Print | Product List | Glossary On
Versions: 1 2 3 4 5 6 7 8 9 10 11 12 13 14 15 16 17 18 19 20 21 22 23 24 25
648
FTUS45 KFGZ 010209 AAB
TAFINW
TAF AMD
KINW 010209Z 0102/0124 33015G25KT P6SM -SHRA BKN035 OVC050
     FM010300 24006KT P6SM -SHRA SCT015 BKN030
     FM011800 24010G020KT P6SM VCSH BKN050=

USA.gov is the U.S. government's official web portal to all federal, state and local government web resources and services.